Time;durP1;ratioP1;P1;durP2;ratioP2;P2;SDS_P1;SDS_P2;PMS_P1;PMS_P2;Temp;Humidity;BMP_temperature;BMP_pressure;BME280_temperature;BME280_humidity;BME280_pressure;Samples;Min_cycle;Max_cycle;Signal;HPM_P1;HPM_P2
2023/08/10 00:01:23;;;;;;;3.80;1.40;;;16.20;99.90;;;;;;5052273;28;20112;-53
2023/08/10 00:03:49;;;;;;;2.78;1.40;;;15.50;99.90;;;;;;5052505;28;20096;-58
2023/08/10 00:06:14;;;;;;;2.13;1.10;;;17.30;99.90;;;;;;5051070;28;20035;-56
2023/08/10 00:08:40;;;;;;;2.95;1.20;;;15.80;99.90;;;;;;5052368;28;20028;-56
2023/08/10 00:11:06;;;;;;;2.38;1.25;;;;;;;;;;5052506;28;20029;-56
2023/08/10 00:13:32;;;;;;;2.55;1.50;;;16.20;99.90;;;;;;5052167;28;20461;-57
2023/08/10 00:15:58;;;;;;;2.78;1.20;;;13.10;99.90;;;;;;5051950;28;20067;-58
2023/08/10 00:18:23;;;;;;;2.63;1.40;;;;;;;;;;5050728;28;20021;-55
2023/08/10 00:20:49;;;;;;;2.33;1.27;;;;;;;;;;5051114;28;20385;-51
2023/08/10 00:23:15;;;;;;;2.60;1.50;;;16.10;99.90;;;;;;5051983;28;20056;-56
2023/08/10 00:25:41;;;;;;;2.47;1.33;;;16.00;99.90;;;;;;5051990;28;20470;-54
2023/08/10 00:28:06;;;;;;;2.97;1.33;;;16.70;99.90;;;;;;5051921;28;20020;-56
2023/08/10 00:30:32;;;;;;;2.95;1.42;;;16.60;99.90;;;;;;5051750;28;20108;-56
2023/08/10 00:32:57;;;;;;;2.67;1.52;;;12.20;99.90;;;;;;5051702;28;20021;-56
2023/08/10 00:35:23;;;;;;;5.00;2.00;;;;;;;;;;5051819;28;20037;-56
2023/08/10 00:37:49;;;;;;;3.65;1.77;;;14.60;99.90;;;;;;5051457;28;20025;-53
2023/08/10 00:40:18;;;;;;;3.45;1.55;;;17.10;99.90;;;;;;5051606;28;20037;-55
2023/08/10 00:42:43;;;;;;;3.33;1.60;;;16.60;99.90;;;;;;5051619;28;20029;-54
2023/08/10 00:45:09;;;;;;;3.67;1.80;;;17.80;99.90;;;;;;5051287;28;20289;-56
2023/08/10 00:47:35;;;;;;;2.83;1.52;;;16.60;99.90;;;;;;5051900;28;20025;-57
2023/08/10 00:50:03;;;;;;;3.13;1.27;;;15.00;99.90;;;;;;5051534;28;20053;-54
2023/08/10 00:52:30;;;;;;;3.55;1.90;;;15.60;99.90;;;;;;5051642;28;20029;-50
2023/08/10 00:54:55;;;;;;;3.05;1.50;;;16.90;99.90;;;;;;5051741;28;20021;-54
2023/08/10 00:57:21;;;;;;;3.25;1.85;;;14.00;99.90;;;;;;5051457;28;20401;-56
2023/08/10 00:59:47;;;;;;;3.50;1.60;;;15.20;99.90;;;;;;5051498;28;20036;-60
2023/08/10 01:02:13;;;;;;;4.30;1.55;;;14.40;99.90;;;;;;5051767;28;20025;-52
2023/08/10 01:04:39;;;;;;;2.80;1.60;;;15.50;99.90;;;;;;5051882;28;20021;-54
2023/08/10 01:07:24;;;;;;;3.38;1.90;;;15.40;99.90;;;;;;5051109;28;20397;-57
2023/08/10 01:10:03;;;;;;;4.57;2.38;;;16.50;99.90;;;;;;5051608;28;20029;-53
2023/08/10 01:12:52;;;;;;;;;;;14.40;99.90;;;;;;5051617;28;20009;-54
2023/08/10 01:15:43;;;;;;;5.07;2.30;;;12.50;99.90;;;;;;5018049;28;20381;-54
2023/08/10 01:18:13;;;;;;;5.00;2.65;;;16.50;99.90;;;;;;5039773;28;20254;-57
2023/08/10 01:20:40;;;;;;;7.32;2.70;;;15.80;99.90;;;;;;5051116;28;20075;-59
2023/08/10 01:23:13;;;;;;;5.65;2.67;;;12.40;99.90;;;;;;5051092;28;20028;-58
2023/08/10 01:25:42;;;;;;;5.07;2.22;;;15.30;99.90;;;;;;5050802;28;20439;-58
2023/08/10 01:28:09;;;;;;;5.72;2.17;;;14.40;99.90;;;;;;5051044;28;20100;-54
2023/08/10 01:30:35;;;;;;;5.03;2.55;;;15.30;99.90;;;;;;5050766;28;20136;-57
2023/08/10 01:33:01;;;;;;;5.88;2.78;;;14.80;99.90;;;;;;5049161;28;20381;-55
2023/08/10 01:35:27;;;;;;;4.80;2.17;;;12.50;99.90;;;;;;5050814;28;20482;-54
2023/08/10 01:37:52;;;;;;;6.53;2.58;;;15.20;99.90;;;;;;5050699;28;20021;-54
2023/08/10 01:40:18;;;;;;;7.38;3.05;;;16.50;99.90;;;;;;5050700;28;20108;-57
2023/08/10 01:42:44;;;;;;;5.95;2.88;;;14.90;99.90;;;;;;5050890;28;20021;-55
2023/08/10 01:45:11;;;;;;;5.10;2.08;;;15.20;99.90;;;;;;5050386;28;20045;-58
2023/08/10 01:47:39;;;;;;;4.25;1.98;;;15.30;99.90;;;;;;5050615;28;20841;-55
2023/08/10 01:50:08;;;;;;;6.95;2.38;;;15.10;99.90;;;;;;5050348;28;20482;-54
2023/08/10 01:52:41;;;;;;;10.52;3.25;;;14.40;99.90;;;;;;5050309;28;20037;-53
2023/08/10 01:55:09;;;;;;;8.90;2.30;;;14.40;99.90;;;;;;5050081;28;20013;-55
2023/08/10 01:57:36;;;;;;;7.13;3.03;;;16.10;99.90;;;;;;5050402;28;20067;-53
2023/08/10 02:00:02;;;;;;;6.50;2.55;;;16.80;99.90;;;;;;5050102;28;20017;-57
2023/08/10 02:02:29;;;;;;;6.15;2.38;;;13.90;99.90;;;;;;5050256;28;20111;-53
2023/08/10 02:04:54;;;;;;;7.00;2.50;;;12.40;99.90;;;;;;5050142;28;20028;-58
2023/08/10 02:07:20;;;;;;;7.97;2.35;;;16.40;99.90;;;;;;5050133;28;20025;-56
2023/08/10 02:09:46;;;;;;;4.15;2.47;;;;;;;;;;5050107;28;20079;-52
2023/08/10 02:12:11;;;;;;;6.47;2.78;;;14.20;99.90;;;;;;5050202;28;20774;-56
2023/08/10 02:14:37;;;;;;;8.80;3.00;;;15.40;99.90;;;;;;5050079;28;20127;-57
2023/08/10 02:17:03;;;;;;;11.38;2.90;;;12.20;99.90;;;;;;5050095;28;20477;-59
2023/08/10 02:19:28;;;;;;;5.03;2.00;;;15.30;99.90;;;;;;5050369;28;20036;-59
2023/08/10 02:21:54;;;;;;;6.40;2.80;;;15.90;99.90;;;;;;5050015;28;20025;-58
2023/08/10 02:24:20;;;;;;;5.80;2.88;;;12.60;99.90;;;;;;5050441;28;20029;-58
2023/08/10 02:26:46;;;;;;;12.00;3.17;;;11.90;99.90;;;;;;5050080;28;20029;-56
2023/08/10 02:29:12;;;;;;;7.60;2.85;;;14.90;99.90;;;;;;5050104;28;20025;-57
2023/08/10 02:31:37;;;;;;;10.75;3.22;;;12.50;99.90;;;;;;5050143;28;20484;-58
2023/08/10 02:34:03;;;;;;;6.50;2.42;;;14.80;99.90;;;;;;5049917;28;20032;-56
2023/08/10 02:36:29;;;;;;;6.10;2.55;;;14.20;99.90;;;;;;5049990;28;20037;-58
2023/08/10 02:38:54;;;;;;;9.43;2.78;;;14.20;99.90;;;;;;5050190;28;20040;-59
2023/08/10 02:41:20;;;;;;;7.82;2.75;;;12.70;99.90;;;;;;5050076;28;20033;-59
2023/08/10 02:43:46;;;;;;;5.15;2.50;;;;;;;;;;5049940;28;20021;-57
2023/08/10 02:46:12;;;;;;;5.25;2.08;;;15.10;99.90;;;;;;5053692;28;20386;-55
2023/08/10 02:48:38;;;;;;;7.28;2.58;;;;;;;;;;5053999;28;20021;-59
2023/08/10 02:51:03;;;;;;;4.80;1.95;;;14.60;99.90;;;;;;5053567;28;20029;-58
2023/08/10 02:53:30;;;;;;;7.93;2.40;;;12.20;99.90;;;;;;5053890;28;20021;-58
2023/08/10 02:55:56;;;;;;;5.43;2.58;;;;;;;;;;5052633;28;20036;-57
2023/08/10 02:58:22;;;;;;;6.32;2.38;;;;;;;;;;5053611;28;20025;-57
2023/08/10 03:00:48;;;;;;;6.03;2.25;;;13.90;99.90;;;;;;5053444;28;20032;-57
2023/08/10 03:03:14;;;;;;;7.45;2.05;;;12.40;99.90;;;;;;5053300;28;20017;-58
2023/08/10 03:05:40;;;;;;;4.60;2.15;;;12.40;99.90;;;;;;5053387;28;20037;-54
2023/08/10 03:08:06;;;;;;;5.53;2.35;;;12.00;99.90;;;;;;5053198;28;20500;-59
2023/08/10 03:10:32;;;;;;;4.32;1.90;;;;;;;;;;5053339;28;20029;-57
2023/08/10 03:12:57;;;;;;;4.55;2.03;;;15.10;99.90;;;;;;5053512;28;20088;-59
2023/08/10 03:15:23;;;;;;;6.95;2.90;;;11.80;99.90;;;;;;5052849;28;20039;-59
2023/08/10 03:17:48;;;;;;;4.47;1.70;;;14.90;99.90;;;;;;5053477;28;20075;-59
2023/08/10 03:20:16;;;;;;;4.40;2.00;;;12.20;99.90;;;;;;5053020;28;20021;-55
2023/08/10 03:22:43;;;;;;;2.97;1.52;;;;;;;;;;5053216;28;20036;-56
2023/08/10 03:25:09;;;;;;;4.10;1.80;;;13.80;99.90;;;;;;5051825;28;20040;-57
2023/08/10 03:27:35;;;;;;;6.75;2.08;;;16.00;99.90;;;;;;5053011;28;20021;-55
2023/08/10 03:30:02;;;;;;;5.38;1.63;;;14.80;99.90;;;;;;5052621;28;20091;-58
2023/08/10 03:32:28;;;;;;;4.30;1.70;;;13.00;99.90;;;;;;5052915;28;20033;-58
2023/08/10 03:34:54;;;;;;;3.15;1.50;;;14.20;99.90;;;;;;5052957;28;20032;-57
2023/08/10 03:37:20;;;;;;;6.07;1.70;;;;;;;;;;5052846;28;20029;-56
2023/08/10 03:39:45;;;;;;;3.85;1.50;;;14.20;99.90;;;;;;5053014;28;20078;-57
2023/08/10 03:42:11;;;;;;;3.85;1.50;;;;;;;;;;5052787;28;20401;-58
2023/08/10 03:44:37;;;;;;;3.42;1.60;;;;;;;;;;5052540;28;20178;-53
2023/08/10 03:47:03;;;;;;;2.65;1.50;;;11.90;99.90;;;;;;5052650;28;20029;-56
2023/08/10 03:49:30;;;;;;;4.05;1.88;;;;;;;;;;5052543;28;20029;-57
2023/08/10 03:51:55;;;;;;;3.15;1.70;;;15.30;99.90;;;;;;5052869;28;20394;-56
2023/08/10 03:54:21;;;;;;;2.72;1.17;;;14.10;99.90;;;;;;5052758;28;20116;-54
2023/08/10 03:56:47;;;;;;;8.25;1.92;;;13.80;99.90;;;;;;5052397;28;20040;-55
2023/08/10 03:59:13;;;;;;;3.58;1.67;;;11.40;99.90;;;;;;5051986;28;20020;-52
2023/08/10 04:01:39;;;;;;;5.75;1.40;;;13.40;99.90;;;;;;5052135;28;20498;-56
2023/08/10 04:04:05;;;;;;;3.45;1.60;;;13.70;99.90;;;;;;5052287;28;20090;-54
2023/08/10 04:06:31;;;;;;;3.22;1.67;;;14.60;99.90;;;;;;5052552;28;20031;-57
2023/08/10 04:08:57;;;;;;;5.00;1.40;;;14.70;99.90;;;;;;5052180;28;20041;-53
2023/08/10 04:11:22;;;;;;;7.20;1.92;;;13.90;99.90;;;;;;5052317;28;20033;-57
2023/08/10 04:13:48;;;;;;;3.80;1.77;;;13.90;99.90;;;;;;5051938;28;20021;-56
2023/08/10 04:16:14;;;;;;;7.25;1.90;;;13.70;99.90;;;;;;5053275;28;20033;-52
2023/08/10 04:18:40;;;;;;;4.10;1.73;;;13.70;99.90;;;;;;5052967;28;20029;-51
2023/08/10 04:21:06;;;;;;;5.75;1.65;;;11.30;99.90;;;;;;5052576;28;20017;-49
2023/08/10 04:23:31;;;;;;;10.00;2.40;;;13.70;99.90;;;;;;5052080;28;20029;-52
2023/08/10 04:25:57;;;;;;;10.45;2.38;;;15.90;99.90;;;;;;5051855;28;20037;-58
2023/08/10 04:28:23;;;;;;;12.88;3.17;;;14.10;99.90;;;;;;5051868;28;20043;-48
2023/08/10 04:30:49;;;;;;;7.32;2.58;;;15.50;99.90;;;;;;5051758;28;20029;-52
2023/08/10 04:33:14;;;;;;;10.38;2.70;;;14.40;99.90;;;;;;5051644;28;20477;-49
2023/08/10 04:35:40;;;;;;;5.85;2.00;;;13.20;99.90;;;;;;5051706;28;20037;-51
2023/08/10 04:38:06;;;;;;;6.70;2.38;;;13.40;99.90;;;;;;5051761;28;20028;-50
2023/08/10 04:40:31;;;;;;;8.85;2.20;;;13.70;99.90;;;;;;5051817;28;20025;-53
2023/08/10 04:43:00;;;;;;;6.65;2.60;;;15.10;99.90;;;;;;5051695;28;20362;-56
2023/08/10 04:45:26;;;;;;;8.65;2.67;;;14.10;99.90;;;;;;5051060;28;20041;-60
2023/08/10 04:47:51;;;;;;;8.40;2.13;;;15.70;99.90;;;;;;5051553;28;20052;-53
2023/08/10 04:50:17;;;;;;;9.30;2.45;;;15.70;99.90;;;;;;5051617;28;20440;-56
2023/08/10 04:52:43;;;;;;;7.22;2.08;;;14.10;99.90;;;;;;5051870;28;20025;-54
2023/08/10 04:55:10;;;;;;;8.80;2.53;;;16.00;99.90;;;;;;5051443;28;20481;-52
2023/08/10 04:57:37;;;;;;;11.10;2.50;;;13.90;99.90;;;;;;5051663;28;20029;-52
2023/08/10 05:00:09;;;;;;;6.68;1.67;;;13.80;99.90;;;;;;5051305;28;20029;-52
2023/08/10 05:02:35;;;;;;;10.82;2.17;;;;;;;;;;5051271;28;20512;-56
2023/08/10 05:05:01;;;;;;;8.30;2.10;;;14.80;99.90;;;;;;5051702;28;20033;-57
2023/08/10 05:07:27;;;;;;;7.93;2.95;;;12.60;99.90;;;;;;5050690;28;20043;-49
2023/08/10 05:09:53;;;;;;;6.53;2.40;;;16.00;99.90;;;;;;5051266;28;20044;-56
2023/08/10 05:12:18;;;;;;;6.78;2.08;;;11.50;99.90;;;;;;5051161;28;20017;-55
2023/08/10 05:14:44;;;;;;;6.85;2.00;;;;;;;;;;5050970;28;20048;-52
2023/08/10 05:17:11;;;;;;;7.45;2.60;;;15.00;99.90;;;;;;5051090;28;20037;-52
2023/08/10 05:19:36;;;;;;;4.13;1.65;;;15.20;99.90;;;;;;5051076;28;20036;-52
2023/08/10 05:22:02;;;;;;;6.68;2.20;;;12.70;99.90;;;;;;5050973;28;20021;-54
2023/08/10 05:24:28;;;;;;;7.35;1.90;;;13.90;99.90;;;;;;5050869;28;20485;-57
2023/08/10 05:26:54;;;;;;;6.53;1.83;;;;;;;;;;5050906;28;20020;-54
2023/08/10 05:29:20;;;;;;;7.05;1.98;;;15.20;99.90;;;;;;5050627;28;20028;-53
2023/08/10 05:31:46;;;;;;;8.25;2.45;;;15.40;99.90;;;;;;5050751;28;20037;-54
2023/08/10 05:34:11;;;;;;;7.47;2.30;;;15.70;99.90;;;;;;5050541;28;20036;-55
2023/08/10 05:36:37;;;;;;;5.70;2.00;;;;;;;;;;5050599;28;20036;-51
2023/08/10 05:39:03;;;;;;;5.57;2.10;;;11.90;99.90;;;;;;5050795;28;20031;-55
2023/08/10 05:41:29;;;;;;;7.00;2.47;;;15.10;99.90;;;;;;5050765;28;20057;-52
2023/08/10 05:43:54;;;;;;;4.85;1.83;;;15.10;99.90;;;;;;5050295;28;20025;-52
2023/08/10 05:46:20;;;;;;;4.90;2.22;;;12.00;99.90;;;;;;5050311;28;20075;-52
2023/08/10 05:48:46;;;;;;;4.85;1.95;;;14.30;99.90;;;;;;5050498;28;20124;-49
2023/08/10 05:51:11;;;;;;;5.60;2.25;;;15.10;99.90;;;;;;5045071;28;20478;-51
2023/08/10 05:53:37;;;;;;;7.13;1.85;;;13.90;99.90;;;;;;5039694;28;20032;-55
2023/08/10 05:56:04;;;;;;;6.15;1.95;;;;;;;;;;5033507;28;20036;-50
2023/08/10 05:58:29;;;;;;;4.40;1.73;;;16.70;99.90;;;;;;5036555;28;20105;-52
2023/08/10 06:00:56;;;;;;;4.60;1.98;;;15.40;99.90;;;;;;5039488;28;20104;-55
2023/08/10 06:03:21;;;;;;;5.55;2.45;;;12.40;99.90;;;;;;5037940;28;20071;-57
2023/08/10 06:05:47;;;;;;;4.13;1.92;;;15.90;99.90;;;;;;5032502;28;20026;-52
2023/08/10 06:08:14;;;;;;;6.25;2.53;;;16.70;99.90;;;;;;5039583;28;20021;-50
2023/08/10 06:10:40;;;;;;;5.53;1.88;;;16.10;99.90;;;;;;5039447;28;20028;-50
2023/08/10 06:13:06;;;;;;;6.65;2.35;;;16.40;99.90;;;;;;5033491;28;20082;-49
2023/08/10 06:15:33;;;;;;;5.95;2.25;;;17.70;99.90;;;;;;5036064;28;20065;-53
2023/08/10 06:17:58;;;;;;;5.07;2.30;;;19.00;99.90;;;;;;5039600;28;20029;-50
2023/08/10 06:20:27;;;;;;;6.65;2.75;;;15.10;99.90;;;;;;5040526;28;20112;-52
2023/08/10 06:22:56;;;;;;;6.40;2.33;;;15.40;99.90;;;;;;5035747;28;20045;-57
2023/08/10 06:25:22;;;;;;;4.85;2.72;;;19.40;99.90;;;;;;5034524;28;20033;-56
2023/08/10 06:27:48;;;;;;;5.05;2.50;;;19.50;99.90;;;;;;5043500;28;20382;-53
2023/08/10 06:30:14;;;;;;;5.60;2.80;;;17.70;99.90;;;;;;5038475;28;20025;-54
2023/08/10 06:32:40;;;;;;;5.75;2.70;;;20.30;99.90;;;;;;5039013;28;20385;-48
2023/08/10 06:35:08;;;;;;;4.82;2.78;;;19.50;99.90;;;;;;5051162;28;20033;-56
2023/08/10 06:37:33;;;;;;;4.43;2.47;;;21.60;99.90;;;;;;5044551;28;20048;-57
2023/08/10 06:39:59;;;;;;;4.90;2.40;;;22.20;99.90;;;;;;5045128;28;20025;-52
2023/08/10 06:42:25;;;;;;;3.67;2.05;;;21.90;99.90;;;;;;5038483;28;20025;-54
2023/08/10 06:44:50;;;;;;;3.85;1.90;;;23.10;99.90;;;;;;5040325;28;20174;-55
2023/08/10 06:47:16;;;;;;;3.40;1.98;;;23.30;99.90;;;;;;5041772;28;20025;-53
2023/08/10 06:49:41;;;;;;;3.55;2.25;;;23.50;99.90;;;;;;5036466;28;20038;-54
2023/08/10 06:52:07;;;;;;;4.70;1.88;;;23.70;99.90;;;;;;5036454;28;20371;-55
2023/08/10 06:54:33;;;;;;;5.38;1.98;;;23.50;99.90;;;;;;5034060;28;20056;-58
2023/08/10 06:57:00;;;;;;;4.72;2.05;;;23.60;99.90;;;;;;5036505;28;20498;-52
2023/08/10 06:59:26;;;;;;;3.22;2.03;;;21.80;99.90;;;;;;5046207;28;20375;-51
2023/08/10 07:01:52;;;;;;;4.55;2.08;;;22.30;99.90;;;;;;5046810;28;20489;-55
2023/08/10 07:04:17;;;;;;;4.07;1.92;;;20.60;99.90;;;;;;5038766;28;20468;-51
2023/08/10 07:06:43;;;;;;;5.28;2.03;;;22.20;99.90;;;;;;5052840;28;20021;-51
2023/08/10 07:09:09;;;;;;;3.60;1.77;;;23.10;99.90;;;;;;5038303;28;20111;-53
2023/08/10 07:11:35;;;;;;;5.13;1.70;;;23.20;99.90;;;;;;5043799;28;20033;-53
2023/08/10 07:14:01;;;;;;;3.28;1.65;;;23.40;99.90;;;;;;5046789;28;20050;-49
2023/08/10 07:16:26;;;;;;;4.07;1.63;;;24.40;99.90;;;;;;5039742;28;20367;-50
2023/08/10 07:18:52;;;;;;;3.75;2.05;;;24.50;99.90;;;;;;5039006;28;20070;-53
2023/08/10 07:21:18;;;;;;;4.00;2.10;;;24.80;99.90;;;;;;5033628;28;20080;-53
2023/08/10 07:23:43;;;;;;;3.00;1.42;;;25.00;99.90;;;;;;5048112;28;20040;-58
2023/08/10 07:26:10;;;;;;;4.97;1.70;;;25.60;99.90;;;;;;5036049;28;20389;-53
2023/08/10 07:28:36;;;;;;;4.30;1.80;;;26.10;99.90;;;;;;5043854;28;20064;-49
2023/08/10 07:31:01;;;;;;;3.78;1.60;;;26.20;99.90;;;;;;5042698;28;20141;-48
2023/08/10 07:33:28;;;;;;;3.65;1.63;;;26.20;99.90;;;;;;5037294;28;20021;-52
2023/08/10 07:35:54;;;;;;;5.20;2.08;;;26.50;99.90;;;;;;5043225;28;20046;-54
2023/08/10 07:38:19;;;;;;;5.15;2.25;;;26.60;99.90;;;;;;5033310;28;20032;-50
2023/08/10 07:40:45;;;;;;;4.70;2.15;;;26.60;99.90;;;;;;5037066;28;20033;-55
2023/08/10 07:43:11;;;;;;;4.65;1.67;;;26.80;99.90;;;;;;5038966;28;20038;-52
2023/08/10 07:45:37;;;;;;;4.03;1.85;;;26.20;99.90;;;;;;5046602;28;20046;-51
2023/08/10 07:48:03;;;;;;;3.67;1.52;;;26.10;99.90;;;;;;5041094;28;20021;-52
2023/08/10 07:50:28;;;;;;;2.13;1.10;;;27.00;99.90;;;;;;5037946;28;20436;-49
2023/08/10 07:52:54;;;;;;;3.42;1.40;;;25.70;99.90;;;;;;5032566;28;20025;-51
2023/08/10 07:55:20;;;;;;;1.42;0.90;;;25.90;99.90;;;;;;5035543;28;20422;-53
2023/08/10 07:57:46;;;;;;;2.15;1.05;;;25.60;99.90;;;;;;5036021;28;20033;-51
2023/08/10 08:00:13;;;;;;;1.55;1.00;;;26.10;99.90;;;;;;5036032;28;20033;-52
2023/08/10 08:02:39;;;;;;;3.85;1.52;;;26.60;99.90;;;;;;5046528;28;20036;-54
2023/08/10 08:05:06;;;;;;;2.72;1.08;;;26.50;99.90;;;;;;5034153;28;20035;-51
2023/08/10 08:07:32;;;;;;;1.80;0.93;;;25.90;99.90;;;;;;5032795;28;20052;-54
2023/08/10 08:09:59;;;;;;;1.90;0.93;;;25.80;99.90;;;;;;5038394;28;20466;-54
2023/08/10 08:12:28;;;;;;;1.52;0.80;;;26.40;99.90;;;;;;5042660;28;20049;-52
2023/08/10 08:14:54;;;;;;;;;;;26.30;99.90;;;;;;5037836;28;20025;-50
2023/08/10 08:17:20;;;;;;;1.65;0.98;;;26.00;99.90;;;;;;5040635;28;20309;-51
2023/08/10 08:19:46;;;;;;;1.83;1.00;;;26.40;99.90;;;;;;5032293;28;20025;-48
2023/08/10 08:22:12;;;;;;;1.35;0.90;;;26.70;99.90;;;;;;5034810;28;20029;-51
2023/08/10 08:24:38;;;;;;;1.17;0.80;;;27.10;99.90;;;;;;5034846;28;20096;-51
2023/08/10 08:27:04;;;;;;;2.40;0.70;;;26.90;99.90;;;;;;5032211;28;20120;-51
2023/08/10 08:29:31;;;;;;;1.80;1.08;;;26.90;99.90;;;;;;5033932;28;20021;-52
2023/08/10 08:31:57;;;;;;;1.80;0.93;;;26.70;99.90;;;;;;5034423;28;20030;-54
2023/08/10 08:34:22;;;;;;;1.98;1.08;;;24.80;99.90;;;;;;5041233;28;20099;-51
2023/08/10 08:36:48;;;;;;;2.17;1.10;;;26.90;99.90;;;;;;5049779;28;20064;-49
2023/08/10 08:39:14;;;;;;;5.28;1.88;;;27.20;99.90;;;;;;5049884;28;20484;-52
2023/08/10 08:41:41;;;;;;;1.92;0.70;;;27.40;99.90;;;;;;5049186;28;20031;-52
2023/08/10 08:44:08;;;;;;;1.65;0.82;;;27.40;99.90;;;;;;5049606;28;20017;-55
2023/08/10 08:46:37;;;;;;;1.38;0.90;;;27.40;99.90;;;;;;5049695;28;20109;-52
2023/08/10 08:49:05;;;;;;;1.58;0.60;;;25.40;99.90;;;;;;5051288;28;20029;-53
2023/08/10 08:51:31;;;;;;;2.33;0.82;;;27.20;99.90;;;;;;5051669;28;20028;-53
2023/08/10 08:54:00;;;;;;;1.27;0.98;;;27.10;99.90;;;;;;5051709;28;20028;-53
2023/08/10 08:56:26;;;;;;;;;;;26.80;99.90;;;;;;5052096;28;20032;-56
2023/08/10 08:58:52;;;;;;;1.85;0.93;;;27.00;99.90;;;;;;5051477;28;19999;-49
2023/08/10 09:01:19;;;;;;;1.70;0.93;;;27.80;99.90;;;;;;5051528;28;20175;-51
2023/08/10 09:03:45;;;;;;;4.10;1.23;;;27.10;99.90;;;;;;5051233;28;20028;-49
2023/08/10 09:06:11;;;;;;;1.15;0.80;;;27.50;99.90;;;;;;5051361;28;20108;-50
2023/08/10 09:08:38;;;;;;;3.70;1.00;;;27.70;99.90;;;;;;5051391;28;20108;-50
2023/08/10 09:11:04;;;;;;;2.88;1.25;;;27.20;99.90;;;;;;5051113;28;20017;-55
2023/08/10 09:13:30;;;;;;;1.98;1.10;;;27.00;99.90;;;;;;5051328;28;20056;-53
2023/08/10 09:16:12;;;;;;;1.45;0.80;;;27.30;99.90;;;;;;5051056;28;20114;-52
2023/08/10 09:18:40;;;;;;;1.30;1.00;;;27.40;99.90;;;;;;5051061;28;20104;-53
2023/08/10 09:21:15;;;;;;;1.27;0.80;;;28.30;99.90;;;;;;5051070;28;20033;-53
2023/08/10 09:23:53;;;;;;;3.17;1.17;;;28.10;99.90;;;;;;5051163;28;20021;-58
2023/08/10 09:26:20;;;;;;;2.17;0.93;;;29.10;99.90;;;;;;5050885;28;20017;-53
2023/08/10 09:28:47;;;;;;;2.78;1.02;;;28.70;99.90;;;;;;5050742;28;20458;-54
2023/08/10 09:31:14;;;;;;;2.38;0.90;;;30.60;99.30;;;;;;5050344;28;20059;-54
2023/08/10 09:33:39;;;;;;;1.60;0.73;;;28.30;98.60;;;;;;5050811;28;20021;-54
2023/08/10 09:36:07;;;;;;;1.40;0.77;;;28.50;99.90;;;;;;5050863;28;20494;-52
2023/08/10 09:38:33;;;;;;;1.48;0.80;;;28.80;98.30;;;;;;5050628;28;20535;-51
2023/08/10 09:41:14;;;;;;;1.90;0.90;;;28.40;99.60;;;;;;5050801;28;20037;-53
2023/08/10 09:43:41;;;;;;;1.85;0.90;;;27.70;99.50;;;;;;5050437;28;20541;-54
2023/08/10 09:46:09;;;;;;;2.45;0.98;;;26.80;99.90;;;;;;5050370;28;20045;-54
2023/08/10 09:48:42;;;;;;;2.00;0.88;;;26.60;99.90;;;;;;5050711;28;20039;-53
2023/08/10 09:51:09;;;;;;;4.53;1.00;;;26.40;99.90;;;;;;5050691;28;20035;-55
2023/08/10 09:53:36;;;;;;;0.68;0.60;;;26.20;99.90;;;;;;5050377;28;20143;-55
2023/08/10 09:56:02;;;;;;;8.43;0.98;;;26.10;99.90;;;;;;5050392;28;20043;-52
2023/08/10 09:58:29;;;;;;;1.63;0.80;;;26.20;99.90;;;;;;5050733;28;20111;-50
2023/08/10 10:00:55;;;;;;;2.58;0.90;;;26.20;99.90;;;;;;5050328;28;20064;-52
2023/08/10 10:03:29;;;;;;;5.47;0.90;;;26.50;99.90;;;;;;5050335;28;20025;-53
2023/08/10 10:05:55;;;;;;;2.25;0.88;;;26.60;99.90;;;;;;5050248;28;20740;-58
2023/08/10 10:08:22;;;;;;;1.65;0.85;;;27.20;99.90;;;;;;5050452;28;20028;-49
2023/08/10 10:10:48;;;;;;;3.30;0.90;;;27.30;99.40;;;;;;5050223;28;20033;-49
2023/08/10 10:13:15;;;;;;;2.40;0.93;;;27.30;99.90;;;;;;5050447;28;20782;-57
2023/08/10 10:15:42;;;;;;;3.53;1.08;;;28.50;99.90;;;;;;5050293;28;20090;-54
2023/08/10 10:18:10;;;;;;;1.60;0.93;;;27.30;99.90;;;;;;5050520;28;20023;-54
2023/08/10 10:20:39;;;;;;;2.05;1.00;;;27.30;99.90;;;;;;5050412;28;20508;-53
2023/08/10 10:23:04;;;;;;;2.25;1.10;;;27.00;99.90;;;;;;5050304;28;20504;-51
2023/08/10 10:25:30;;;;;;;2.33;1.10;;;26.20;99.90;;;;;;5050254;28;20025;-50
2023/08/10 10:27:56;;;;;;;3.38;0.95;;;27.30;99.90;;;;;;5050183;28;20031;-49
2023/08/10 10:30:24;;;;;;;2.50;1.08;;;28.30;99.90;;;;;;5050499;28;20055;-49
2023/08/10 10:32:50;;;;;;;2.47;1.10;;;26.70;99.90;;;;;;5050224;28;20025;-56
2023/08/10 10:35:28;;;;;;;1.77;0.93;;;27.60;99.90;;;;;;5050171;28;20064;-54
2023/08/10 10:37:58;;;;;;;1.50;0.90;;;27.80;99.90;;;;;;5050100;28;20036;-52
2023/08/10 10:40:25;;;;;;;1.52;1.08;;;26.80;98.70;;;;;;5050165;28;20108;-52
2023/08/10 10:43:03;;;;;;;3.95;1.40;;;27.30;99.10;;;;;;5048894;28;20029;-52
2023/08/10 10:45:38;;;;;;;1.83;1.05;;;27.60;99.90;;;;;;5049934;28;20433;-56
2023/08/10 10:48:05;;;;;;;2.05;1.00;;;28.00;99.20;;;;;;5050110;28;20497;-50
2023/08/10 10:50:32;;;;;;;1.90;1.27;;;28.30;99.90;;;;;;5049911;28;20104;-52
2023/08/10 10:53:05;;;;;;;1.80;1.10;;;28.80;97.90;;;;;;5050095;28;20079;-54
2023/08/10 10:55:42;;;;;;;4.60;1.10;;;29.10;99.50;;;;;;5049775;28;20472;-57
2023/08/10 10:58:09;;;;;;;2.05;1.15;;;29.40;99.60;;;;;;5049692;28;20508;-51
2023/08/10 11:00:36;;;;;;;3.70;1.25;;;29.60;98.20;;;;;;5049742;28;20078;-50
2023/08/10 11:03:08;;;;;;;3.13;1.30;;;28.90;98.10;;;;;;5050347;28;20025;-56
2023/08/10 11:05:34;;;;;;;3.15;1.33;;;28.30;99.20;;;;;;5051013;28;20382;-52
2023/08/10 11:08:03;;;;;;;1.67;0.90;;;28.30;99.20;;;;;;5053693;28;20017;-48
2023/08/10 11:10:31;;;;;;;;;;;28.70;99.90;;;;;;5053903;28;20079;-57
2023/08/10 11:12:57;;;;;;;1.90;1.00;;;29.10;99.90;;;;;;5053716;28;19947;-52
2023/08/10 11:15:23;;;;;;;6.38;1.00;;;28.90;99.40;;;;;;5048092;28;20026;-50
2023/08/10 11:17:52;;;;;;;1.20;0.95;;;29.00;99.90;;;;;;5039579;28;20060;-53
2023/08/10 11:20:20;;;;;;;1.40;1.08;;;28.50;99.90;;;;;;5045029;28;20021;-52
2023/08/10 11:22:50;;;;;;;2.27;1.10;;;28.70;99.00;;;;;;5043519;28;20030;-52
2023/08/10 11:25:17;;;;;;;4.40;1.17;;;27.60;98.80;;;;;;5048251;28;20531;-50
2023/08/10 11:27:47;;;;;;;2.20;1.25;;;28.10;99.90;;;;;;5036848;28;20110;-54
2023/08/10 11:30:14;;;;;;;1.98;1.00;;;28.10;99.10;;;;;;5045106;28;20112;-55
2023/08/10 11:32:45;;;;;;;2.03;0.98;;;27.90;99.50;;;;;;5047296;28;20029;-55
2023/08/10 11:35:12;;;;;;;3.60;1.15;;;27.50;99.90;;;;;;5037109;28;20015;-54
2023/08/10 11:37:39;;;;;;;2.47;1.30;;;25.30;99.70;;;;;;5053196;28;20040;-52
2023/08/10 11:40:13;;;;;;;1.70;1.08;;;27.10;99.90;;;;;;5049343;28;20043;-51
2023/08/10 11:42:44;;;;;;;1.77;1.20;;;27.00;99.90;;;;;;5048321;28;20570;-48
2023/08/10 11:45:11;;;;;;;3.70;1.35;;;27.10;99.90;;;;;;5052341;28;20041;-46
2023/08/10 11:47:42;;;;;;;1.70;1.30;;;28.10;99.80;;;;;;5052233;28;20100;-47
2023/08/10 11:50:09;;;;;;;2.17;1.33;;;27.80;99.90;;;;;;5042758;28;20057;-54
2023/08/10 11:52:37;;;;;;;2.42;1.40;;;28.10;99.90;;;;;;5044916;28;20076;-47
2023/08/10 11:55:13;;;;;;;2.37;1.30;;;28.40;99.90;;;;;;5044418;28;20058;-52
2023/08/10 11:57:42;;;;;;;2.63;1.42;;;28.20;98.10;;;;;;5048439;28;20043;-56
2023/08/10 12:00:33;;;;;;;2.90;1.30;;;28.40;99.30;;;;;;5045634;28;20458;-55
2023/08/10 12:03:22;;;;;;;2.72;1.17;;;28.70;99.00;;;;;;5035139;28;20045;-54
2023/08/10 12:05:54;;;;;;;2.22;1.10;;;28.80;99.20;;;;;;5043816;28;20447;-55
2023/08/10 12:08:23;;;;;;;2.92;1.30;;;28.60;98.40;;;;;;5041064;28;20014;-45
2023/08/10 12:11:06;;;;;;;2.17;1.30;;;28.40;98.50;;;;;;5035433;28;20033;-56
2023/08/10 12:13:33;;;;;;;2.20;1.17;;;27.90;99.50;;;;;;5033542;28;20034;-48
2023/08/10 12:16:02;;;;;;;3.63;1.38;;;27.60;99.90;;;;;;5033248;28;20025;-55
2023/08/10 12:18:28;;;;;;;2.75;1.30;;;27.30;99.90;;;;;;5038227;28;20033;-51
2023/08/10 12:20:55;;;;;;;2.08;1.20;;;29.50;99.90;;;;;;5041878;28;20404;-52
2023/08/10 12:23:21;;;;;;;3.15;1.55;;;27.10;99.70;;;;;;5041048;28;20022;-47
2023/08/10 12:25:50;;;;;;;1.65;1.23;;;27.00;99.90;;;;;;5042936;28;20021;-46
2023/08/10 12:28:18;;;;;;;1.95;1.30;;;27.10;99.90;;;;;;5038466;28;20032;-51
2023/08/10 12:30:48;;;;;;;1.88;1.20;;;26.70;99.90;;;;;;5048367;28;20021;-51
2023/08/10 12:33:14;;;;;;;1.67;1.00;;;;;;;;;;5039826;28;20056;-51
2023/08/10 12:35:41;;;;;;;3.10;1.25;;;26.40;99.70;;;;;;5049092;28;20473;-50
2023/08/10 12:38:07;;;;;;;2.78;1.58;;;26.20;99.90;;;;;;5049761;28;20477;-52
2023/08/10 12:40:33;;;;;;;2.97;1.30;;;25.90;99.90;;;;;;5050363;28;20025;-51
2023/08/10 12:42:59;;;;;;;2.60;1.10;;;25.90;99.90;;;;;;5039488;28;20025;-44
2023/08/10 12:45:26;;;;;;;2.97;1.55;;;25.80;99.90;;;;;;5034698;28;20406;-46
2023/08/10 12:47:52;;;;;;;2.92;1.88;;;27.20;99.90;;;;;;5034386;28;20080;-48
2023/08/10 12:50:18;;;;;;;2.42;1.33;;;27.30;99.90;;;;;;5039101;28;20450;-50
2023/08/10 12:52:46;;;;;;;3.20;1.60;;;26.90;99.90;;;;;;5036329;28;20057;-49
2023/08/10 12:55:12;;;;;;;2.65;1.23;;;22.40;99.90;;;;;;5038062;28;20117;-45